sensor_id;sensor_type;location;lat;lon;timestamp;P1;durP1;ratioP1;P2;durP2;ratioP2
3613;SDS011;1821;50.936;6.854;2024-03-02T00:00:31;3.15;;;2.28;;
3613;SDS011;1821;50.936;6.854;2024-03-02T00:01:14;3.08;;;1.90;;
3613;SDS011;1821;50.936;6.854;2024-03-02T00:01:56;3.30;;;2.10;;
3613;SDS011;1821;50.936;6.854;2024-03-02T00:02:45;3.85;;;2.13;;
3613;SDS011;1821;50.936;6.854;2024-03-02T00:03:27;3.72;;;2.10;;
3613;SDS011;1821;50.936;6.854;2024-03-02T00:04:09;4.05;;;2.22;;
3613;SDS011;1821;50.936;6.854;2024-03-02T00:04:52;4.55;;;2.42;;
3613;SDS011;1821;50.936;6.854;2024-03-02T00:05:34;3.08;;;2.20;;
3613;SDS011;1821;50.936;6.854;2024-03-02T00:06:19;3.63;;;2.00;;
3613;SDS011;1821;50.936;6.854;2024-03-02T00:07:02;3.70;;;2.33;;
3613;SDS011;1821;50.936;6.854;2024-03-02T00:07:47;3.10;;;2.25;;
3613;SDS011;1821;50.936;6.854;2024-03-02T00:08:30;4.00;;;2.10;;
3613;SDS011;1821;50.936;6.854;2024-03-02T00:09:12;4.60;;;2.00;;
3613;SDS011;1821;50.936;6.854;2024-03-02T00:09:56;4.18;;;2.00;;
3613;SDS011;1821;50.936;6.854;2024-03-02T00:10:40;3.45;;;2.38;;
3613;SDS011;1821;50.936;6.854;2024-03-02T00:11:22;4.65;;;2.30;;
3613;SDS011;1821;50.936;6.854;2024-03-02T00:12:04;4.07;;;2.20;;
3613;SDS011;1821;50.936;6.854;2024-03-02T00:12:47;3.97;;;2.20;;
3613;SDS011;1821;50.936;6.854;2024-03-02T00:13:30;4.90;;;2.10;;
3613;SDS011;1821;50.936;6.854;2024-03-02T00:14:13;3.90;;;1.80;;
3613;SDS011;1821;50.936;6.854;2024-03-02T00:14:56;3.70;;;2.28;;
3613;SDS011;1821;50.936;6.854;2024-03-02T00:15:46;5.93;;;2.38;;
3613;SDS011;1821;50.936;6.854;2024-03-02T00:16:31;3.78;;;1.80;;
3613;SDS011;1821;50.936;6.854;2024-03-02T00:17:21;2.63;;;1.92;;
3613;SDS011;1821;50.936;6.854;2024-03-02T00:18:06;3.17;;;2.58;;
3613;SDS011;1821;50.936;6.854;2024-03-02T00:18:49;3.80;;;2.40;;
3613;SDS011;1821;50.936;6.854;2024-03-02T00:19:32;3.30;;;2.20;;
3613;SDS011;1821;50.936;6.854;2024-03-02T00:20:15;3.50;;;2.20;;
3613;SDS011;1821;50.936;6.854;2024-03-02T00:20:59;4.78;;;2.30;;
3613;SDS011;1821;50.936;6.854;2024-03-02T00:21:42;5.10;;;2.33;;
3613;SDS011;1821;50.936;6.854;2024-03-02T00:22:24;5.40;;;2.17;;
3613;SDS011;1821;50.936;6.854;2024-03-02T00:23:07;4.35;;;2.40;;
3613;SDS011;1821;50.936;6.854;2024-03-02T00:23:49;4.10;;;2.30;;
3613;SDS011;1821;50.936;6.854;2024-03-02T00:24:34;3.35;;;2.25;;
3613;SDS011;1821;50.936;6.854;2024-03-02T00:25:19;3.17;;;2.20;;
3613;SDS011;1821;50.936;6.854;2024-03-02T00:26:01;3.90;;;1.90;;
3613;SDS011;1821;50.936;6.854;2024-03-02T00:26:47;3.08;;;2.08;;
3613;SDS011;1821;50.936;6.854;2024-03-02T00:27:29;4.07;;;2.40;;
3613;SDS011;1821;50.936;6.854;2024-03-02T00:28:54;4.53;;;2.50;;
3613;SDS011;1821;50.936;6.854;2024-03-02T00:29:39;4.90;;;2.20;;
3613;SDS011;1821;50.936;6.854;2024-03-02T00:31:13;4.38;;;2.40;;
3613;SDS011;1821;50.936;6.854;2024-03-02T00:31:55;3.53;;;2.10;;
3613;SDS011;1821;50.936;6.854;2024-03-02T00:32:39;3.05;;;2.05;;
3613;SDS011;1821;50.936;6.854;2024-03-02T00:33:22;4.10;;;2.20;;
3613;SDS011;1821;50.936;6.854;2024-03-02T00:34:04;4.20;;;2.05;;
3613;SDS011;1821;50.936;6.854;2024-03-02T00:34:50;4.50;;;2.65;;
3613;SDS011;1821;50.936;6.854;2024-03-02T00:35:32;3.70;;;2.20;;
3613;SDS011;1821;50.936;6.854;2024-03-02T00:36:22;3.05;;;2.20;;
3613;SDS011;1821;50.936;6.854;2024-03-02T00:37:04;3.00;;;1.98;;
3613;SDS011;1821;50.936;6.854;2024-03-02T00:37:47;2.90;;;1.80;;
3613;SDS011;1821;50.936;6.854;2024-03-02T00:38:32;3.13;;;2.10;;
3613;SDS011;1821;50.936;6.854;2024-03-02T00:39:15;4.55;;;2.00;;
3613;SDS011;1821;50.936;6.854;2024-03-02T00:39:59;4.10;;;2.40;;
3613;SDS011;1821;50.936;6.854;2024-03-02T00:40:42;5.00;;;2.28;;
3613;SDS011;1821;50.936;6.854;2024-03-02T00:41:27;3.20;;;2.20;;
3613;SDS011;1821;50.936;6.854;2024-03-02T00:42:09;3.58;;;2.20;;
3613;SDS011;1821;50.936;6.854;2024-03-02T00:42:54;4.07;;;2.40;;
3613;SDS011;1821;50.936;6.854;2024-03-02T00:44:25;3.20;;;2.20;;
3613;SDS011;1821;50.936;6.854;2024-03-02T00:45:08;3.60;;;2.00;;
3613;SDS011;1821;50.936;6.854;2024-03-02T00:45:50;3.80;;;1.92;;
3613;SDS011;1821;50.936;6.854;2024-03-02T00:46:36;4.63;;;2.42;;
3613;SDS011;1821;50.936;6.854;2024-03-02T00:47:18;3.15;;;2.30;;
3613;SDS011;1821;50.936;6.854;2024-03-02T00:48:01;3.00;;;2.20;;
3613;SDS011;1821;50.936;6.854;2024-03-02T00:49:02;3.13;;;2.10;;
3613;SDS011;1821;50.936;6.854;2024-03-02T00:49:44;3.13;;;2.25;;
3613;SDS011;1821;50.936;6.854;2024-03-02T00:50:29;3.55;;;1.90;;
3613;SDS011;1821;50.936;6.854;2024-03-02T00:51:11;3.80;;;1.90;;
3613;SDS011;1821;50.936;6.854;2024-03-02T00:51:54;2.90;;;1.90;;
3613;SDS011;1821;50.936;6.854;2024-03-02T00:52:37;3.30;;;2.35;;
3613;SDS011;1821;50.936;6.854;2024-03-02T00:53:21;3.10;;;2.20;;
3613;SDS011;1821;50.936;6.854;2024-03-02T00:54:10;3.00;;;2.03;;
3613;SDS011;1821;50.936;6.854;2024-03-02T00:54:55;3.10;;;2.05;;
3613;SDS011;1821;50.936;6.854;2024-03-02T00:55:39;3.10;;;2.10;;
3613;SDS011;1821;50.936;6.854;2024-03-02T00:56:25;3.08;;;1.85;;
3613;SDS011;1821;50.936;6.854;2024-03-02T00:57:10;4.28;;;1.92;;
3613;SDS011;1821;50.936;6.854;2024-03-02T00:57:54;3.47;;;2.03;;
3613;SDS011;1821;50.936;6.854;2024-03-02T00:58:36;3.60;;;2.08;;
3613;SDS011;1821;50.936;6.854;2024-03-02T00:59:18;5.18;;;2.45;;
3613;SDS011;1821;50.936;6.854;2024-03-02T01:00:01;3.40;;;2.00;;
3613;SDS011;1821;50.936;6.854;2024-03-02T01:00:44;4.72;;;2.28;;
3613;SDS011;1821;50.936;6.854;2024-03-02T01:01:29;6.32;;;2.30;;
3613;SDS011;1821;50.936;6.854;2024-03-02T01:02:11;3.10;;;1.90;;
3613;SDS011;1821;50.936;6.854;2024-03-02T01:02:53;2.72;;;1.88;;
3613;SDS011;1821;50.936;6.854;2024-03-02T01:03:36;2.80;;;2.00;;
3613;SDS011;1821;50.936;6.854;2024-03-02T01:04:19;4.90;;;2.10;;
3613;SDS011;1821;50.936;6.854;2024-03-02T01:05:01;5.90;;;2.20;;
3613;SDS011;1821;50.936;6.854;2024-03-02T01:05:43;5.07;;;2.30;;
3613;SDS011;1821;50.936;6.854;2024-03-02T01:06:25;3.80;;;2.30;;
3613;SDS011;1821;50.936;6.854;2024-03-02T01:07:11;3.53;;;2.00;;
3613;SDS011;1821;50.936;6.854;2024-03-02T01:07:53;3.25;;;2.00;;
3613;SDS011;1821;50.936;6.854;2024-03-02T01:08:36;3.70;;;2.10;;
3613;SDS011;1821;50.936;6.854;2024-03-02T01:09:18;3.70;;;2.00;;
3613;SDS011;1821;50.936;6.854;2024-03-02T01:10:00;4.30;;;2.08;;
3613;SDS011;1821;50.936;6.854;2024-03-02T01:10:43;3.40;;;2.00;;
3613;SDS011;1821;50.936;6.854;2024-03-02T01:11:25;4.30;;;2.00;;
3613;SDS011;1821;50.936;6.854;2024-03-02T01:12:10;4.80;;;2.10;;
3613;SDS011;1821;50.936;6.854;2024-03-02T01:12:52;3.63;;;2.05;;
3613;SDS011;1821;50.936;6.854;2024-03-02T01:13:35;3.92;;;2.10;;
3613;SDS011;1821;50.936;6.854;2024-03-02T01:14:17;3.90;;;2.00;;
3613;SDS011;1821;50.936;6.854;2024-03-02T01:15:00;3.28;;;1.80;;
3613;SDS011;1821;50.936;6.854;2024-03-02T01:15:42;3.00;;;1.80;;
3613;SDS011;1821;50.936;6.854;2024-03-02T01:16:25;3.50;;;1.90;;
3613;SDS011;1821;50.936;6.854;2024-03-02T01:17:07;3.00;;;2.08;;
3613;SDS011;1821;50.936;6.854;2024-03-02T01:17:50;3.60;;;2.00;;
3613;SDS011;1821;50.936;6.854;2024-03-02T01:18:36;2.80;;;1.85;;
3613;SDS011;1821;50.936;6.854;2024-03-02T01:19:18;4.63;;;2.80;;
3613;SDS011;1821;50.936;6.854;2024-03-02T01:20:01;4.57;;;2.33;;
3613;SDS011;1821;50.936;6.854;2024-03-02T01:20:43;3.63;;;2.40;;
3613;SDS011;1821;50.936;6.854;2024-03-02T01:21:25;2.78;;;1.90;;
3613;SDS011;1821;50.936;6.854;2024-03-02T01:22:08;3.60;;;1.90;;
3613;SDS011;1821;50.936;6.854;2024-03-02T01:22:50;3.30;;;1.90;;
3613;SDS011;1821;50.936;6.854;2024-03-02T01:23:33;3.00;;;1.88;;
3613;SDS011;1821;50.936;6.854;2024-03-02T01:24:16;3.33;;;2.10;;
3613;SDS011;1821;50.936;6.854;2024-03-02T01:24:59;5.50;;;2.10;;
3613;SDS011;1821;50.936;6.854;2024-03-02T01:25:42;3.70;;;1.88;;
3613;SDS011;1821;50.936;6.854;2024-03-02T01:26:24;3.20;;;2.00;;
3613;SDS011;1821;50.936;6.854;2024-03-02T01:27:06;3.70;;;2.20;;
3613;SDS011;1821;50.936;6.854;2024-03-02T01:27:49;3.30;;;1.90;;
3613;SDS011;1821;50.936;6.854;2024-03-02T01:28:31;4.07;;;2.05;;
3613;SDS011;1821;50.936;6.854;2024-03-02T01:29:13;3.85;;;1.83;;
3613;SDS011;1821;50.936;6.854;2024-03-02T01:29:56;4.05;;;1.90;;
3613;SDS011;1821;50.936;6.854;2024-03-02T01:30:38;3.80;;;2.20;;
3613;SDS011;1821;50.936;6.854;2024-03-02T01:31:20;3.08;;;2.00;;
3613;SDS011;1821;50.936;6.854;2024-03-02T01:32:05;2.90;;;1.90;;
3613;SDS011;1821;50.936;6.854;2024-03-02T01:32:47;2.95;;;2.13;;
3613;SDS011;1821;50.936;6.854;2024-03-02T01:33:29;4.85;;;1.85;;
3613;SDS011;1821;50.936;6.854;2024-03-02T01:34:12;5.15;;;2.00;;
3613;SDS011;1821;50.936;6.854;2024-03-02T01:34:54;4.35;;;1.90;;
3613;SDS011;1821;50.936;6.854;2024-03-02T01:35:37;3.83;;;1.95;;
3613;SDS011;1821;50.936;6.854;2024-03-02T01:36:19;3.78;;;2.00;;
3613;SDS011;1821;50.936;6.854;2024-03-02T01:37:04;4.00;;;2.00;;
3613;SDS011;1821;50.936;6.854;2024-03-02T01:37:46;4.60;;;2.30;;
3613;SDS011;1821;50.936;6.854;2024-03-02T01:38:29;3.15;;;2.15;;
3613;SDS011;1821;50.936;6.854;2024-03-02T01:39:12;3.80;;;2.00;;
3613;SDS011;1821;50.936;6.854;2024-03-02T01:39:55;4.53;;;1.90;;
3613;SDS011;1821;50.936;6.854;2024-03-02T01:40:37;5.03;;;2.30;;
3613;SDS011;1821;50.936;6.854;2024-03-02T01:41:20;3.20;;;2.20;;
3613;SDS011;1821;50.936;6.854;2024-03-02T01:42:02;2.92;;;2.00;;
3613;SDS011;1821;50.936;6.854;2024-03-02T01:42:45;3.97;;;1.80;;
3613;SDS011;1821;50.936;6.854;2024-03-02T01:43:32;3.47;;;2.10;;
3613;SDS011;1821;50.936;6.854;2024-03-02T01:44:17;5.88;;;2.10;;
3613;SDS011;1821;50.936;6.854;2024-03-02T01:45:03;6.07;;;2.40;;
3613;SDS011;1821;50.936;6.854;2024-03-02T01:45:45;2.80;;;1.90;;
3613;SDS011;1821;50.936;6.854;2024-03-02T01:46:28;3.00;;;2.10;;
3613;SDS011;1821;50.936;6.854;2024-03-02T01:47:11;3.28;;;2.05;;
3613;SDS011;1821;50.936;6.854;2024-03-02T01:47:53;3.13;;;1.70;;
3613;SDS011;1821;50.936;6.854;2024-03-02T01:48:35;3.17;;;2.00;;
3613;SDS011;1821;50.936;6.854;2024-03-02T01:49:18;3.22;;;2.00;;
3613;SDS011;1821;50.936;6.854;2024-03-02T01:50:00;3.40;;;2.17;;
3613;SDS011;1821;50.936;6.854;2024-03-02T01:50:43;4.57;;;2.10;;
3613;SDS011;1821;50.936;6.854;2024-03-02T01:51:25;5.43;;;1.90;;
3613;SDS011;1821;50.936;6.854;2024-03-02T01:52:08;3.22;;;1.80;;
3613;SDS011;1821;50.936;6.854;2024-03-02T01:52:50;3.30;;;1.90;;
3613;SDS011;1821;50.936;6.854;2024-03-02T01:53:32;2.60;;;1.80;;
3613;SDS011;1821;50.936;6.854;2024-03-02T01:54:15;3.47;;;1.98;;
3613;SDS011;1821;50.936;6.854;2024-03-02T01:54:57;4.25;;;1.95;;
3613;SDS011;1821;50.936;6.854;2024-03-02T01:55:39;4.18;;;2.10;;
3613;SDS011;1821;50.936;6.854;2024-03-02T01:56:22;3.85;;;1.92;;
3613;SDS011;1821;50.936;6.854;2024-03-02T01:57:04;3.10;;;1.98;;
3613;SDS011;1821;50.936;6.854;2024-03-02T01:57:47;2.90;;;1.80;;
3613;SDS011;1821;50.936;6.854;2024-03-02T01:58:32;3.53;;;1.67;;
3613;SDS011;1821;50.936;6.854;2024-03-02T01:59:14;2.60;;;1.80;;
3613;SDS011;1821;50.936;6.854;2024-03-02T01:59:56;3.30;;;1.92;;
3613;SDS011;1821;50.936;6.854;2024-03-02T02:00:39;4.30;;;1.92;;
3613;SDS011;1821;50.936;6.854;2024-03-02T02:01:21;3.78;;;1.85;;
3613;SDS011;1821;50.936;6.854;2024-03-02T02:02:04;3.42;;;1.90;;
3613;SDS011;1821;50.936;6.854;2024-03-02T02:02:46;3.42;;;1.88;;
3613;SDS011;1821;50.936;6.854;2024-03-02T02:03:29;4.45;;;1.90;;
3613;SDS011;1821;50.936;6.854;2024-03-02T02:04:11;5.15;;;2.15;;
3613;SDS011;1821;50.936;6.854;2024-03-02T02:04:55;3.55;;;2.08;;
3613;SDS011;1821;50.936;6.854;2024-03-02T02:05:37;3.50;;;2.00;;
3613;SDS011;1821;50.936;6.854;2024-03-02T02:06:19;3.10;;;1.80;;
3613;SDS011;1821;50.936;6.854;2024-03-02T02:07:03;4.70;;;2.10;;
3613;SDS011;1821;50.936;6.854;2024-03-02T02:07:45;3.90;;;1.80;;
3613;SDS011;1821;50.936;6.854;2024-03-02T02:08:28;3.67;;;2.10;;
3613;SDS011;1821;50.936;6.854;2024-03-02T02:09:10;3.35;;;2.00;;
3613;SDS011;1821;50.936;6.854;2024-03-02T02:09:55;5.18;;;1.80;;
3613;SDS011;1821;50.936;6.854;2024-03-02T02:10:38;4.57;;;2.05;;
3613;SDS011;1821;50.936;6.854;2024-03-02T02:11:20;3.50;;;1.90;;
3613;SDS011;1821;50.936;6.854;2024-03-02T02:12:02;3.50;;;1.80;;
3613;SDS011;1821;50.936;6.854;2024-03-02T02:12:51;3.38;;;1.75;;
3613;SDS011;1821;50.936;6.854;2024-03-02T02:13:33;3.50;;;2.00;;
3613;SDS011;1821;50.936;6.854;2024-03-02T02:14:15;6.20;;;1.98;;
3613;SDS011;1821;50.936;6.854;2024-03-02T02:15:00;2.45;;;1.88;;
3613;SDS011;1821;50.936;6.854;2024-03-02T02:15:43;3.42;;;1.80;;
3613;SDS011;1821;50.936;6.854;2024-03-02T02:16:25;3.70;;;1.70;;
3613;SDS011;1821;50.936;6.854;2024-03-02T02:17:07;2.67;;;1.70;;
3613;SDS011;1821;50.936;6.854;2024-03-02T02:17:50;3.60;;;1.90;;
3613;SDS011;1821;50.936;6.854;2024-03-02T02:18:34;2.78;;;1.65;;
3613;SDS011;1821;50.936;6.854;2024-03-02T02:19:19;4.80;;;1.60;;
3613;SDS011;1821;50.936;6.854;2024-03-02T02:20:02;5.03;;;2.00;;
3613;SDS011;1821;50.936;6.854;2024-03-02T02:20:46;3.92;;;1.95;;
3613;SDS011;1821;50.936;6.854;2024-03-02T02:21:29;3.72;;;1.80;;
3613;SDS011;1821;50.936;6.854;2024-03-02T02:22:11;2.90;;;1.73;;
3613;SDS011;1821;50.936;6.854;2024-03-02T02:23:00;2.60;;;1.90;;
3613;SDS011;1821;50.936;6.854;2024-03-02T02:23:43;4.70;;;2.10;;
3613;SDS011;1821;50.936;6.854;2024-03-02T02:24:29;3.13;;;1.70;;
3613;SDS011;1821;50.936;6.854;2024-03-02T02:25:12;3.30;;;1.70;;
3613;SDS011;1821;50.936;6.854;2024-03-02T02:25:54;2.60;;;1.70;;
3613;SDS011;1821;50.936;6.854;2024-03-02T02:26:36;3.30;;;1.70;;
3613;SDS011;1821;50.936;6.854;2024-03-02T02:27:19;3.40;;;1.88;;
3613;SDS011;1821;50.936;6.854;2024-03-02T02:28:01;3.92;;;1.75;;
3613;SDS011;1821;50.936;6.854;2024-03-02T02:28:44;3.30;;;1.83;;
3613;SDS011;1821;50.936;6.854;2024-03-02T02:29:28;3.17;;;2.00;;
3613;SDS011;1821;50.936;6.854;2024-03-02T02:30:11;3.28;;;1.92;;
3613;SDS011;1821;50.936;6.854;2024-03-02T02:30:54;3.20;;;1.70;;
3613;SDS011;1821;50.936;6.854;2024-03-02T02:31:38;3.45;;;2.00;;
3613;SDS011;1821;50.936;6.854;2024-03-02T02:32:20;2.70;;;1.83;;
3613;SDS011;1821;50.936;6.854;2024-03-02T02:33:02;2.85;;;1.70;;
3613;SDS011;1821;50.936;6.854;2024-03-02T02:33:45;3.88;;;1.88;;
3613;SDS011;1821;50.936;6.854;2024-03-02T02:34:31;3.80;;;1.90;;
3613;SDS011;1821;50.936;6.854;2024-03-02T02:35:13;4.10;;;1.85;;
3613;SDS011;1821;50.936;6.854;2024-03-02T02:35:56;3.95;;;2.40;;
3613;SDS011;1821;50.936;6.854;2024-03-02T02:36:38;3.00;;;2.10;;
3613;SDS011;1821;50.936;6.854;2024-03-02T02:37:22;3.00;;;1.80;;
3613;SDS011;1821;50.936;6.854;2024-03-02T02:38:04;2.78;;;1.73;;
3613;SDS011;1821;50.936;6.854;2024-03-02T02:38:47;3.17;;;1.90;;
3613;SDS011;1821;50.936;6.854;2024-03-02T02:39:30;4.15;;;1.90;;
3613;SDS011;1821;50.936;6.854;2024-03-02T02:40:14;3.55;;;1.80;;
3613;SDS011;1821;50.936;6.854;2024-03-02T02:40:59;4.10;;;1.90;;
3613;SDS011;1821;50.936;6.854;2024-03-02T02:41:42;3.40;;;1.70;;
3613;SDS011;1821;50.936;6.854;2024-03-02T02:42:24;5.97;;;1.90;;
3613;SDS011;1821;50.936;6.854;2024-03-02T02:43:06;3.58;;;1.90;;
3613;SDS011;1821;50.936;6.854;2024-03-02T02:43:49;2.80;;;1.85;;
3613;SDS011;1821;50.936;6.854;2024-03-02T02:44:31;2.90;;;1.70;;
3613;SDS011;1821;50.936;6.854;2024-03-02T02:45:13;2.90;;;1.60;;
3613;SDS011;1821;50.936;6.854;2024-03-02T02:45:57;2.72;;;1.60;;
3613;SDS011;1821;50.936;6.854;2024-03-02T02:46:39;3.22;;;1.80;;
3613;SDS011;1821;50.936;6.854;2024-03-02T02:47:22;3.40;;;1.70;;
3613;SDS011;1821;50.936;6.854;2024-03-02T02:48:04;2.65;;;1.60;;
3613;SDS011;1821;50.936;6.854;2024-03-02T02:48:47;2.60;;;1.58;;
3613;SDS011;1821;50.936;6.854;2024-03-02T02:49:29;3.28;;;1.70;;
3613;SDS011;1821;50.936;6.854;2024-03-02T02:50:11;2.65;;;1.63;;
3613;SDS011;1821;50.936;6.854;2024-03-02T02:50:54;2.40;;;1.52;;
3613;SDS011;1821;50.936;6.854;2024-03-02T02:51:36;4.40;;;1.60;;
3613;SDS011;1821;50.936;6.854;2024-03-02T02:52:22;3.13;;;1.60;;
3613;SDS011;1821;50.936;6.854;2024-03-02T02:53:04;3.42;;;1.70;;
3613;SDS011;1821;50.936;6.854;2024-03-02T02:53:49;3.97;;;2.42;;
3613;SDS011;1821;50.936;6.854;2024-03-02T02:54:32;4.90;;;1.85;;
3613;SDS011;1821;50.936;6.854;2024-03-02T02:55:14;4.63;;;1.85;;
3613;SDS011;1821;50.936;6.854;2024-03-02T02:55:57;2.90;;;1.70;;
3613;SDS011;1821;50.936;6.854;2024-03-02T02:56:39;2.67;;;1.77;;
3613;SDS011;1821;50.936;6.854;2024-03-02T02:57:24;2.65;;;1.85;;
3613;SDS011;1821;50.936;6.854;2024-03-02T02:58:06;3.35;;;2.00;;
3613;SDS011;1821;50.936;6.854;2024-03-02T02:58:49;3.28;;;1.40;;
3613;SDS011;1821;50.936;6.854;2024-03-02T02:59:32;6.30;;;2.00;;
3613;SDS011;1821;50.936;6.854;2024-03-02T03:00:14;2.70;;;1.55;;
3613;SDS011;1821;50.936;6.854;2024-03-02T03:00:59;2.30;;;1.55;;
3613;SDS011;1821;50.936;6.854;2024-03-02T03:01:41;3.40;;;1.70;;
3613;SDS011;1821;50.936;6.854;2024-03-02T03:02:24;3.88;;;1.90;;
3613;SDS011;1821;50.936;6.854;2024-03-02T03:03:06;3.20;;;1.88;;
3613;SDS011;1821;50.936;6.854;2024-03-02T03:03:49;4.07;;;2.22;;
3613;SDS011;1821;50.936;6.854;2024-03-02T03:04:31;3.58;;;2.17;;
3613;SDS011;1821;50.936;6.854;2024-03-02T03:05:13;4.22;;;1.80;;
3613;SDS011;1821;50.936;6.854;2024-03-02T03:05:56;3.58;;;1.67;;
3613;SDS011;1821;50.936;6.854;2024-03-02T03:06:38;3.50;;;1.70;;
3613;SDS011;1821;50.936;6.854;2024-03-02T03:07:21;2.97;;;1.70;;
3613;SDS011;1821;50.936;6.854;2024-03-02T03:08:03;3.10;;;1.70;;
3613;SDS011;1821;50.936;6.854;2024-03-02T03:08:46;3.00;;;1.70;;
3613;SDS011;1821;50.936;6.854;2024-03-02T03:09:28;3.60;;;1.90;;
3613;SDS011;1821;50.936;6.854;2024-03-02T03:10:10;3.60;;;1.90;;
3613;SDS011;1821;50.936;6.854;2024-03-02T03:10:52;2.83;;;1.60;;
3613;SDS011;1821;50.936;6.854;2024-03-02T03:11:35;2.92;;;1.60;;
3613;SDS011;1821;50.936;6.854;2024-03-02T03:12:17;3.70;;;1.63;;
3613;SDS011;1821;50.936;6.854;2024-03-02T03:13:00;3.50;;;1.60;;
3613;SDS011;1821;50.936;6.854;2024-03-02T03:13:42;2.72;;;1.50;;
3613;SDS011;1821;50.936;6.854;2024-03-02T03:14:28;3.75;;;1.73;;
3613;SDS011;1821;50.936;6.854;2024-03-02T03:15:10;4.50;;;1.90;;
3613;SDS011;1821;50.936;6.854;2024-03-02T03:15:54;3.55;;;2.00;;
3613;SDS011;1821;50.936;6.854;2024-03-02T03:16:37;2.85;;;1.65;;
3613;SDS011;1821;50.936;6.854;2024-03-02T03:17:21;2.50;;;1.70;;
3613;SDS011;1821;50.936;6.854;2024-03-02T03:18:04;2.80;;;1.80;;
3613;SDS011;1821;50.936;6.854;2024-03-02T03:18:47;3.70;;;1.80;;
3613;SDS011;1821;50.936;6.854;2024-03-02T03:19:33;5.38;;;2.13;;
3613;SDS011;1821;50.936;6.854;2024-03-02T03:20:16;3.63;;;2.08;;
3613;SDS011;1821;50.936;6.854;2024-03-02T03:21:00;3.17;;;2.08;;
3613;SDS011;1821;50.936;6.854;2024-03-02T03:21:43;3.10;;;1.88;;
3613;SDS011;1821;50.936;6.854;2024-03-02T03:22:26;2.40;;;1.40;;
3613;SDS011;1821;50.936;6.854;2024-03-02T03:23:08;2.47;;;1.58;;
3613;SDS011;1821;50.936;6.854;2024-03-02T03:23:50;3.38;;;1.50;;
3613;SDS011;1821;50.936;6.854;2024-03-02T03:24:35;3.47;;;1.60;;
3613;SDS011;1821;50.936;6.854;2024-03-02T03:25:17;2.83;;;1.90;;
3613;SDS011;1821;50.936;6.854;2024-03-02T03:26:00;3.00;;;1.85;;
3613;SDS011;1821;50.936;6.854;2024-03-02T03:26:42;2.95;;;1.55;;
3613;SDS011;1821;50.936;6.854;2024-03-02T03:27:24;3.03;;;1.63;;
3613;SDS011;1821;50.936;6.854;2024-03-02T03:28:07;2.95;;;1.70;;
3613;SDS011;1821;50.936;6.854;2024-03-02T03:28:55;3.00;;;1.80;;
3613;SDS011;1821;50.936;6.854;2024-03-02T03:29:37;3.03;;;1.60;;
3613;SDS011;1821;50.936;6.854;2024-03-02T03:30:20;2.80;;;1.70;;
3613;SDS011;1821;50.936;6.854;2024-03-02T03:31:03;2.47;;;1.80;;
3613;SDS011;1821;50.936;6.854;2024-03-02T03:31:45;3.20;;;1.80;;
3613;SDS011;1821;50.936;6.854;2024-03-02T03:32:27;2.53;;;1.65;;
3613;SDS011;1821;50.936;6.854;2024-03-02T03:33:09;2.78;;;1.67;;
3613;SDS011;1821;50.936;6.854;2024-03-02T03:33:55;3.05;;;1.90;;
3613;SDS011;1821;50.936;6.854;2024-03-02T03:34:37;4.88;;;2.00;;
3613;SDS011;1821;50.936;6.854;2024-03-02T03:35:19;3.65;;;2.03;;
3613;SDS011;1821;50.936;6.854;2024-03-02T03:36:02;3.15;;;1.70;;
3613;SDS011;1821;50.936;6.854;2024-03-02T03:36:45;2.63;;;1.60;;
3613;SDS011;1821;50.936;6.854;2024-03-02T03:37:27;4.57;;;1.77;;
3613;SDS011;1821;50.936;6.854;2024-03-02T03:38:15;2.90;;;1.85;;
3613;SDS011;1821;50.936;6.854;2024-03-02T03:38:57;3.10;;;1.80;;
3613;SDS011;1821;50.936;6.854;2024-03-02T03:39:39;4.40;;;1.80;;
3613;SDS011;1821;50.936;6.854;2024-03-02T03:40:21;4.60;;;2.00;;
3613;SDS011;1821;50.936;6.854;2024-03-02T03:41:04;3.17;;;1.73;;
3613;SDS011;1821;50.936;6.854;2024-03-02T03:41:46;2.88;;;1.60;;
3613;SDS011;1821;50.936;6.854;2024-03-02T03:42:29;2.70;;;1.80;;
3613;SDS011;1821;50.936;6.854;2024-03-02T03:43:11;3.50;;;2.00;;
3613;SDS011;1821;50.936;6.854;2024-03-02T03:43:56;3.78;;;1.92;;
3613;SDS011;1821;50.936;6.854;2024-03-02T03:44:38;3.40;;;1.88;;
3613;SDS011;1821;50.936;6.854;2024-03-02T03:45:21;3.60;;;1.98;;
3613;SDS011;1821;50.936;6.854;2024-03-02T03:46:06;3.63;;;1.80;;
3613;SDS011;1821;50.936;6.854;2024-03-02T03:46:48;2.95;;;1.80;;
3613;SDS011;1821;50.936;6.854;2024-03-02T03:47:31;2.60;;;1.50;;
3613;SDS011;1821;50.936;6.854;2024-03-02T03:48:13;2.20;;;1.70;;
3613;SDS011;1821;50.936;6.854;2024-03-02T03:48:58;2.20;;;1.40;;
3613;SDS011;1821;50.936;6.854;2024-03-02T03:49:44;2.60;;;1.70;;
3613;SDS011;1821;50.936;6.854;2024-03-02T03:50:26;2.53;;;1.88;;
3613;SDS011;1821;50.936;6.854;2024-03-02T03:51:08;2.60;;;1.70;;
3613;SDS011;1821;50.936;6.854;2024-03-02T03:51:50;3.33;;;1.80;;
3613;SDS011;1821;50.936;6.854;2024-03-02T03:52:33;3.33;;;1.70;;
3613;SDS011;1821;50.936;6.854;2024-03-02T03:53:15;3.10;;;1.70;;
3613;SDS011;1821;50.936;6.854;2024-03-02T03:53:58;3.03;;;1.95;;
3613;SDS011;1821;50.936;6.854;2024-03-02T03:54:41;3.70;;;1.60;;
3613;SDS011;1821;50.936;6.854;2024-03-02T03:55:24;3.13;;;1.70;;
3613;SDS011;1821;50.936;6.854;2024-03-02T03:56:07;2.80;;;1.63;;
3613;SDS011;1821;50.936;6.854;2024-03-02T03:56:49;2.50;;;1.70;;
3613;SDS011;1821;50.936;6.854;2024-03-02T03:57:31;2.70;;;1.70;;
3613;SDS011;1821;50.936;6.854;2024-03-02T03:58:14;2.60;;;1.70;;
3613;SDS011;1821;50.936;6.854;2024-03-02T03:59:01;2.58;;;1.60;;
3613;SDS011;1821;50.936;6.854;2024-03-02T03:59:43;4.28;;;2.00;;
3613;SDS011;1821;50.936;6.854;2024-03-02T04:00:26;5.47;;;2.20;;
3613;SDS011;1821;50.936;6.854;2024-03-02T04:01:08;2.78;;;2.10;;
3613;SDS011;1821;50.936;6.854;2024-03-02T04:01:51;3.90;;;2.40;;
3613;SDS011;1821;50.936;6.854;2024-03-02T04:02:36;3.03;;;2.33;;
3613;SDS011;1821;50.936;6.854;2024-03-02T04:03:18;5.80;;;3.20;;
3613;SDS011;1821;50.936;6.854;2024-03-02T04:04:01;6.00;;;3.13;;
3613;SDS011;1821;50.936;6.854;2024-03-02T04:04:45;5.90;;;2.70;;
3613;SDS011;1821;50.936;6.854;2024-03-02T04:05:27;4.38;;;2.20;;
3613;SDS011;1821;50.936;6.854;2024-03-02T04:06:10;3.05;;;2.00;;
3613;SDS011;1821;50.936;6.854;2024-03-02T04:06:52;2.70;;;1.80;;
3613;SDS011;1821;50.936;6.854;2024-03-02T04:07:35;3.20;;;2.10;;
3613;SDS011;1821;50.936;6.854;2024-03-02T04:08:21;2.92;;;1.90;;
3613;SDS011;1821;50.936;6.854;2024-03-02T04:09:03;5.55;;;2.17;;
3613;SDS011;1821;50.936;6.854;2024-03-02T04:09:46;4.22;;;2.35;;
3613;SDS011;1821;50.936;6.854;2024-03-02T04:10:28;3.00;;;2.00;;
3613;SDS011;1821;50.936;6.854;2024-03-02T04:11:11;4.20;;;2.40;;
3613;SDS011;1821;50.936;6.854;2024-03-02T04:11:54;3.78;;;2.40;;
3613;SDS011;1821;50.936;6.854;2024-03-02T04:12:36;3.20;;;2.38;;
3613;SDS011;1821;50.936;6.854;2024-03-02T04:13:19;3.70;;;2.13;;
3613;SDS011;1821;50.936;6.854;2024-03-02T04:14:01;4.60;;;2.33;;
3613;SDS011;1821;50.936;6.854;2024-03-02T04:15:06;4.28;;;2.40;;
3613;SDS011;1821;50.936;6.854;2024-03-02T04:15:48;4.18;;;2.10;;
3613;SDS011;1821;50.936;6.854;2024-03-02T04:16:31;3.00;;;2.20;;
3613;SDS011;1821;50.936;6.854;2024-03-02T04:17:13;3.13;;;2.38;;
3613;SDS011;1821;50.936;6.854;2024-03-02T04:17:56;3.00;;;2.17;;
3613;SDS011;1821;50.936;6.854;2024-03-02T04:18:38;3.67;;;2.25;;
3613;SDS011;1821;50.936;6.854;2024-03-02T04:19:21;4.05;;;2.15;;
3613;SDS011;1821;50.936;6.854;2024-03-02T04:20:03;3.30;;;2.10;;
3613;SDS011;1821;50.936;6.854;2024-03-02T04:20:47;4.50;;;2.20;;
3613;SDS011;1821;50.936;6.854;2024-03-02T04:21:32;5.95;;;2.60;;
3613;SDS011;1821;50.936;6.854;2024-03-02T04:22:15;4.95;;;2.50;;
3613;SDS011;1821;50.936;6.854;2024-03-02T04:23:05;2.95;;;2.13;;
3613;SDS011;1821;50.936;6.854;2024-03-02T04:23:48;3.88;;;2.40;;
3613;SDS011;1821;50.936;6.854;2024-03-02T04:24:30;4.10;;;2.40;;
3613;SDS011;1821;50.936;6.854;2024-03-02T04:25:12;5.20;;;2.30;;
3613;SDS011;1821;50.936;6.854;2024-03-02T04:25:55;5.20;;;2.30;;
3613;SDS011;1821;50.936;6.854;2024-03-02T04:26:37;5.50;;;2.40;;
3613;SDS011;1821;50.936;6.854;2024-03-02T04:27:19;3.20;;;2.20;;
3613;SDS011;1821;50.936;6.854;2024-03-02T04:28:02;2.92;;;1.85;;
3613;SDS011;1821;50.936;6.854;2024-03-02T04:28:44;2.92;;;1.90;;
3613;SDS011;1821;50.936;6.854;2024-03-02T04:29:27;3.10;;;1.90;;
3613;SDS011;1821;50.936;6.854;2024-03-02T04:30:09;3.00;;;2.10;;
3613;SDS011;1821;50.936;6.854;2024-03-02T04:30:52;3.10;;;2.30;;